createdAt,value
2022-11-16T00:01:03.104Z,8.92
2022-11-16T00:04:05.883Z,8.97
2022-11-16T00:07:09.538Z,8.97
2022-11-16T00:10:12.990Z,8.86
2022-11-16T00:13:15.815Z,8.88
2022-11-16T00:16:18.624Z,8.90
2022-11-16T00:19:22.082Z,8.90
2022-11-16T00:22:24.992Z,8.94
2022-11-16T00:25:27.892Z,8.95
2022-11-16T00:28:31.125Z,8.92
2022-11-16T00:31:34.146Z,8.95
2022-11-16T00:34:36.860Z,8.93
2022-11-16T00:37:39.614Z,8.99
2022-11-16T00:40:42.547Z,9.00
2022-11-16T00:43:45.434Z,9.00
2022-11-16T00:46:48.192Z,8.95
2022-11-16T00:49:50.963Z,8.98
2022-11-16T00:52:54.518Z,8.98
2022-11-16T00:55:57.364Z,8.99
2022-11-16T00:59:00.254Z,8.96
2022-11-16T01:02:03.096Z,8.98
2022-11-16T01:05:06.977Z,9.00
2022-11-16T01:08:09.808Z,9.03
2022-11-16T01:11:33.519Z,9.05
2022-11-16T01:14:38.470Z,9.06
2022-11-16T01:17:42.397Z,9.04
2022-11-16T01:20:45.246Z,9.11
2022-11-16T01:23:48.246Z,9.07
2022-11-16T01:26:51.226Z,9.05
2022-11-16T01:29:54.206Z,9.03
2022-11-16T01:32:57.086Z,8.96
2022-11-16T01:36:00.046Z,8.93
2022-11-16T01:39:04.802Z,8.97
2022-11-16T01:42:18.817Z,8.99
2022-11-16T01:45:34.233Z,9.01
2022-11-16T01:48:38.307Z,9.08
2022-11-16T01:51:51.552Z,9.09
2022-11-16T01:54:55.556Z,9.06
2022-11-16T01:58:01.823Z,9.08
2022-11-16T02:01:05.898Z,9.10
2022-11-16T02:04:13.439Z,9.12
2022-11-16T02:07:30.743Z,9.09
2022-11-16T02:10:42.633Z,9.12
2022-11-16T02:13:49.057Z,9.14
2022-11-16T02:17:12.990Z,9.17
2022-11-16T02:20:42.399Z,9.18
2022-11-16T02:24:13.501Z,9.21
2022-11-16T02:27:37.810Z,9.16
2022-11-16T02:30:46.934Z,9.20
2022-11-16T02:33:52.015Z,9.20
2022-11-16T02:36:57.458Z,9.23
2022-11-16T02:40:05.524Z,9.32
2022-11-16T02:43:12.223Z,9.26
2022-11-16T02:46:29.318Z,9.21
2022-11-16T02:49:36.828Z,9.22
2022-11-16T02:52:39.365Z,9.24
2022-11-16T02:55:45.848Z,9.27
2022-11-16T02:58:48.449Z,9.28
2022-11-16T03:02:02.227Z,9.29
2022-11-16T03:05:32.217Z,9.27
2022-11-16T03:08:39.943Z,9.27
2022-11-16T03:12:00.375Z,9.29
2022-11-16T03:15:07.431Z,9.26
2022-11-16T03:18:14.291Z,9.25
2022-11-16T03:21:37.726Z,9.30
2022-11-16T03:24:41.650Z,9.29
2022-11-16T03:28:02.552Z,9.29
2022-11-16T03:31:15.186Z,9.33
2022-11-16T03:34:21.712Z,9.35
2022-11-16T03:37:25.451Z,9.31
2022-11-16T03:40:31.607Z,9.33
2022-11-16T03:43:36.203Z,9.29
2022-11-16T03:46:44.451Z,9.32
2022-11-16T03:49:48.133Z,9.37
2022-11-16T03:52:52.163Z,9.39
2022-11-16T03:55:54.711Z,9.27
2022-11-16T03:58:57.985Z,9.28
2022-11-16T04:02:00.483Z,9.27
2022-11-16T04:05:22.859Z,9.27
2022-11-16T04:08:44.211Z,9.28
2022-11-16T04:12:07.520Z,9.30
2022-11-16T04:15:41.454Z,9.29
2022-11-16T04:19:03.471Z,9.27
2022-11-16T04:22:37.056Z,9.27
2022-11-16T04:25:42.308Z,9.27
2022-11-16T04:28:48.013Z,9.25
2022-11-16T04:32:10.062Z,9.23
2022-11-16T04:35:31.748Z,9.27
2022-11-16T04:38:35.043Z,9.27
2022-11-16T04:41:56.820Z,9.30
2022-11-16T04:45:19.436Z,9.26
2022-11-16T04:48:22.547Z,9.25
2022-11-16T04:51:26.501Z,9.21
2022-11-16T04:54:29.319Z,9.22
2022-11-16T04:57:32.874Z,9.18
2022-11-16T05:00:35.513Z,9.18
2022-11-16T05:03:41.134Z,9.20
2022-11-16T05:06:43.684Z,9.19
2022-11-16T05:09:48.898Z,9.18
2022-11-16T05:12:51.619Z,9.19
2022-11-16T05:15:54.988Z,9.21
2022-11-16T05:19:17.166Z,9.20
2022-11-16T05:22:20.447Z,9.23
2022-11-16T05:25:24.227Z,9.31
2022-11-16T05:28:28.254Z,9.30
2022-11-16T05:31:34.006Z,9.20
2022-11-16T05:34:40.931Z,9.19
2022-11-16T05:37:44.151Z,9.19
2022-11-16T05:40:47.091Z,9.16
2022-11-16T05:43:49.525Z,9.12
2022-11-16T05:46:53.460Z,9.11
2022-11-16T05:49:56.126Z,9.12
2022-11-16T05:53:00.319Z,9.13
2022-11-16T05:56:03.085Z,9.20
2022-11-16T05:59:11.193Z,9.30
2022-11-16T06:02:18.531Z,9.37
2022-11-16T06:05:21.774Z,9.34
2022-11-16T06:08:25.058Z,9.34
2022-11-16T06:11:32.821Z,9.33
2022-11-16T06:14:38.527Z,9.32
2022-11-16T06:17:41.783Z,9.25
2022-11-16T06:20:45.021Z,9.27
2022-11-16T06:23:48.320Z,9.29
2022-11-16T06:26:50.884Z,9.27
2022-11-16T06:29:54.093Z,9.26
2022-11-16T06:32:57.160Z,9.32
2022-11-16T06:36:01.411Z,9.30
2022-11-16T06:39:04.046Z,9.25
2022-11-16T06:42:08.748Z,9.25
2022-11-16T06:45:12.127Z,9.28
2022-11-16T06:48:15.359Z,9.30
2022-11-16T06:51:18.481Z,9.27
2022-11-16T06:54:22.968Z,9.27
2022-11-16T06:57:30.564Z,9.30
2022-11-16T07:00:33.930Z,9.34
2022-11-16T07:03:36.808Z,9.28
2022-11-16T07:06:41.061Z,9.31
2022-11-16T07:09:45.095Z,9.32
2022-11-16T07:12:49.551Z,9.34
2022-11-16T07:15:52.601Z,9.35
2022-11-16T07:18:57.875Z,9.38
2022-11-16T07:22:00.808Z,9.41
2022-11-16T07:25:04.627Z,9.42
2022-11-16T07:28:07.094Z,9.43
2022-11-16T07:31:15.687Z,9.40
2022-11-16T07:34:18.590Z,9.37
2022-11-16T07:37:22.030Z,9.40
2022-11-16T07:40:24.508Z,9.52
2022-11-16T07:43:31.702Z,9.43
2022-11-16T07:46:46.701Z,9.50
2022-11-16T07:49:50.721Z,9.45
2022-11-16T07:52:55.655Z,9.45
2022-11-16T07:55:58.869Z,9.52
2022-11-16T07:59:02.416Z,9.56
2022-11-16T08:02:06.168Z,9.56
2022-11-16T08:05:09.219Z,9.60
2022-11-16T08:08:13.801Z,9.60
2022-11-16T08:11:17.008Z,9.63
2022-11-16T08:14:20.464Z,9.66
2022-11-16T08:17:23.727Z,9.71
2022-11-16T08:20:28.839Z,9.69
2022-11-16T08:23:32.469Z,9.72
2022-11-16T08:26:35.415Z,9.75
2022-11-16T08:29:38.940Z,9.74
2022-11-16T08:32:42.482Z,9.87
2022-11-16T08:35:45.941Z,9.81
2022-11-16T08:38:50.061Z,9.79
2022-11-16T08:41:54.132Z,9.78
2022-11-16T08:44:56.949Z,9.81
2022-11-16T08:48:03.959Z,9.82
2022-11-16T08:51:18.886Z,9.82
2022-11-16T08:54:23.845Z,9.86
2022-11-16T08:57:26.691Z,9.92
2022-11-16T09:00:29.745Z,9.89
2022-11-16T09:03:32.456Z,9.99
2022-11-16T09:06:35.808Z,9.94
2022-11-16T09:09:38.445Z,9.95
2022-11-16T09:12:41.741Z,9.81
2022-11-16T09:15:44.987Z,9.86
2022-11-16T09:18:51.428Z,9.93
2022-11-16T09:21:54.340Z,10.06
2022-11-16T09:24:57.091Z,9.91
2022-11-16T09:28:00.066Z,9.92
2022-11-16T09:31:04.481Z,9.92
2022-11-16T09:34:07.770Z,9.95
2022-11-16T09:37:10.799Z,9.87
2022-11-16T09:40:13.611Z,9.92
2022-11-16T09:43:36.602Z,9.97
2022-11-16T09:46:52.066Z,10.04
2022-11-16T09:50:01.602Z,10.06
2022-11-16T09:53:14.769Z,10.09
2022-11-16T09:56:25.928Z,10.21
2022-11-16T09:59:37.046Z,10.22
2022-11-16T10:02:48.531Z,10.16
2022-11-16T10:06:05.418Z,10.12
2022-11-16T10:09:12.494Z,10.11
2022-11-16T10:12:35.424Z,10.15
2022-11-16T10:16:02.604Z,10.19
2022-11-16T10:19:14.758Z,10.21
2022-11-16T10:22:27.593Z,10.20
2022-11-16T10:25:43.791Z,10.23
2022-11-16T10:29:07.674Z,10.24
2022-11-16T10:32:22.216Z,10.29
2022-11-16T10:35:35.301Z,10.20
2022-11-16T10:38:39.300Z,10.18
2022-11-16T10:41:51.807Z,10.19
2022-11-16T10:45:13.279Z,10.22
2022-11-16T10:48:39.718Z,10.24
2022-11-16T10:51:43.460Z,10.27
2022-11-16T10:54:46.041Z,10.28
2022-11-16T10:58:06.544Z,10.33
2022-11-16T11:01:13.167Z,10.39
2022-11-16T11:04:16.318Z,10.33
2022-11-16T11:07:24.641Z,10.37
2022-11-16T11:10:31.492Z,10.36
2022-11-16T11:13:35.057Z,10.47
2022-11-16T11:16:39.203Z,10.36
2022-11-16T11:19:41.741Z,10.37
2022-11-16T11:23:02.503Z,10.43
2022-11-16T11:26:05.316Z,10.43
2022-11-16T11:29:17.359Z,10.38
2022-11-16T11:32:24.099Z,10.40
2022-11-16T11:35:32.971Z,10.41
2022-11-16T11:38:57.499Z,10.40
2022-11-16T11:42:22.023Z,10.43
2022-11-16T11:45:42.539Z,10.42
2022-11-16T11:49:00.074Z,10.41
2022-11-16T11:52:14.463Z,10.40
2022-11-16T11:55:19.899Z,10.48
2022-11-16T11:58:31.329Z,10.40
2022-11-16T12:01:49.776Z,10.38
2022-11-16T12:05:10.235Z,10.43
2022-11-16T12:08:40.130Z,10.35
2022-11-16T12:12:20.467Z,10.41
2022-11-16T12:15:57.541Z,10.43
2022-11-16T12:19:03.272Z,10.45
2022-11-16T12:22:37.081Z,10.47
2022-11-16T12:25:49.154Z,10.34
2022-11-16T12:29:27.488Z,10.43
2022-11-16T12:32:58.223Z,10.41
2022-11-16T12:36:22.565Z,10.43
2022-11-16T12:39:31.379Z,10.37
2022-11-16T12:43:00.028Z,10.35
2022-11-16T12:46:06.729Z,10.39
2022-11-16T12:49:31.210Z,10.33
2022-11-16T12:52:58.854Z,10.44
2022-11-16T12:56:20.473Z,10.39
2022-11-16T12:59:26.587Z,10.44
2022-11-16T13:03:00.169Z,10.44
2022-11-16T13:06:09.534Z,10.48
2022-11-16T13:09:24.389Z,10.45
2022-11-16T13:12:30.799Z,10.44
2022-11-16T13:15:37.592Z,10.43
2022-11-16T13:18:42.909Z,10.39
2022-11-16T13:21:50.477Z,10.42
2022-11-16T13:25:01.501Z,10.38
2022-11-16T13:28:20.434Z,10.37
2022-11-16T13:31:44.034Z,10.39
2022-11-16T13:34:47.878Z,10.42
2022-11-16T13:37:52.410Z,10.44
2022-11-16T13:41:47.193Z,10.35
2022-11-16T13:44:51.732Z,10.36
2022-11-16T13:47:57.974Z,10.41
2022-11-16T13:51:04.095Z,10.37
2022-11-16T13:57:52.435Z,10.37
2022-11-16T14:01:00.693Z,10.39
2022-11-16T14:04:41.841Z,10.34
2022-11-16T14:07:49.483Z,10.30
2022-11-16T14:10:52.277Z,10.37
2022-11-16T14:13:55.388Z,10.30
2022-11-16T14:16:58.295Z,10.33
2022-11-16T14:20:01.296Z,10.34
2022-11-16T14:23:04.150Z,10.38
2022-11-16T14:26:27.418Z,10.33
2022-11-16T14:30:05.326Z,10.26
2022-11-16T14:33:28.197Z,10.35
2022-11-16T14:36:42.131Z,10.30
2022-11-16T14:39:45.380Z,10.35
2022-11-16T14:43:16.940Z,10.27
2022-11-16T14:46:26.339Z,10.29
2022-11-16T14:49:33.259Z,10.17
2022-11-16T14:52:49.145Z,10.15
2022-11-16T14:55:52.058Z,10.13
2022-11-16T14:58:59.930Z,10.13
2022-11-16T15:02:16.753Z,10.14
2022-11-16T15:05:27.526Z,10.25
2022-11-16T15:08:42.354Z,10.14
2022-11-16T15:12:07.987Z,10.17
2022-11-16T15:15:10.693Z,10.12
2022-11-16T15:18:18.062Z,10.14
2022-11-16T15:21:22.744Z,10.23
2022-11-16T15:24:31.408Z,10.17
2022-11-16T15:27:40.752Z,10.22
2022-11-16T15:30:48.784Z,10.17
2022-11-16T15:33:52.392Z,10.09
2022-11-16T15:36:55.371Z,10.09
2022-11-16T15:40:00.196Z,10.10
2022-11-16T15:43:05.964Z,10.08
2022-11-16T15:46:09.159Z,10.08
2022-11-16T15:49:35.497Z,10.02
2022-11-16T15:52:55.191Z,10.02
2022-11-16T15:55:58.049Z,10.07
2022-11-16T15:59:09.627Z,10.07
2022-11-16T16:02:20.497Z,10.07
2022-11-16T16:05:40.945Z,10.07
2022-11-16T16:08:45.172Z,10.06
2022-11-16T16:11:48.552Z,10.10
2022-11-16T16:15:24.623Z,10.10
2022-11-16T16:18:40.585Z,10.08
2022-11-16T16:21:45.798Z,10.05
2022-11-16T16:24:48.641Z,10.08
2022-11-16T16:27:51.512Z,10.08
2022-11-16T16:30:54.302Z,10.07
2022-11-16T16:33:57.155Z,10.00
2022-11-16T16:36:59.922Z,10.01
2022-11-16T16:40:03.308Z,10.02
2022-11-16T16:43:07.685Z,9.99
2022-11-16T16:46:11.646Z,10.02
2022-11-16T16:49:14.529Z,9.99
2022-11-16T16:52:17.965Z,10.03
2022-11-16T16:55:21.928Z,10.05
2022-11-16T16:58:24.751Z,10.06
2022-11-16T17:01:28.193Z,10.08
2022-11-16T17:04:32.785Z,10.10
2022-11-16T17:07:35.660Z,10.11
2022-11-16T17:10:39.363Z,10.13
2022-11-16T17:13:42.186Z,10.13
2022-11-16T17:16:45.045Z,10.11
2022-11-16T17:19:47.872Z,10.10
2022-11-16T17:22:56.317Z,10.10
2022-11-16T17:25:59.179Z,10.10
2022-11-16T17:29:01.957Z,10.08
2022-11-16T17:32:05.079Z,10.09
2022-11-16T17:35:08.303Z,10.10
2022-11-16T17:38:13.123Z,10.18
2022-11-16T17:41:18.573Z,10.05
2022-11-16T17:44:22.078Z,10.05
2022-11-16T17:47:25.168Z,10.00
2022-11-16T17:50:28.034Z,10.09
2022-11-16T17:53:32.952Z,10.10
2022-11-16T17:56:36.145Z,10.03
2022-11-16T17:59:38.937Z,10.01
2022-11-16T18:02:41.725Z,10.03
2022-11-16T18:05:44.835Z,10.04
2022-11-16T18:08:48.284Z,10.08
2022-11-16T18:11:51.645Z,10.09
2022-11-16T18:15:21.248Z,10.09
2022-11-16T18:18:17.312Z,10.06
2022-11-16T18:21:20.953Z,10.03
2022-11-16T18:24:24.314Z,10.06
2022-11-16T18:27:26.924Z,10.08
2022-11-16T18:30:30.769Z,10.04
2022-11-16T18:33:37.942Z,10.03
2022-11-16T18:36:43.485Z,10.05
2022-11-16T18:39:46.614Z,10.06
2022-11-16T18:42:53.041Z,10.07
2022-11-16T18:45:55.870Z,10.03
2022-11-16T18:49:00.090Z,10.06
2022-11-16T18:52:02.699Z,10.06
2022-11-16T18:55:06.278Z,10.06
2022-11-16T18:58:22.726Z,10.03
2022-11-16T19:01:31.916Z,10.02
2022-11-16T19:04:34.555Z,10.02
2022-11-16T19:07:37.879Z,10.00
2022-11-16T19:10:40.579Z,10.02
2022-11-16T19:13:44.654Z,10.04
2022-11-16T19:16:54.160Z,10.05
2022-11-16T19:20:02.449Z,10.06
2022-11-16T19:23:05.132Z,10.06
2022-11-16T19:26:09.964Z,10.06
2022-11-16T19:29:12.539Z,10.06
2022-11-16T19:32:15.850Z,10.02
2022-11-16T19:35:18.488Z,10.04
2022-11-16T19:38:21.571Z,10.06
2022-11-16T19:41:25.524Z,10.09
2022-11-16T19:44:28.633Z,10.06
2022-11-16T19:47:31.278Z,10.03
2022-11-16T19:50:35.571Z,10.00
2022-11-16T19:53:39.276Z,10.00
2022-11-16T19:56:43.450Z,9.99
2022-11-16T19:59:47.754Z,9.93
2022-11-16T20:02:56.111Z,10.02
2022-11-16T20:06:11.453Z,9.99
2022-11-16T20:09:14.589Z,9.97
2022-11-16T20:12:17.443Z,9.95
2022-11-16T20:15:23.506Z,9.97
2022-11-16T20:18:28.644Z,10.04
2022-11-16T20:21:40.509Z,9.98
2022-11-16T20:24:43.321Z,10.01
2022-11-16T20:27:46.634Z,10.00
2022-11-16T20:30:49.615Z,9.99
2022-11-16T20:33:57.676Z,9.99
2022-11-16T20:37:00.514Z,10.00
2022-11-16T20:40:04.104Z,10.02
2022-11-16T20:43:09.111Z,10.06
2022-11-16T20:46:19.641Z,10.06
2022-11-16T20:49:23.978Z,10.06
2022-11-16T20:52:26.842Z,10.06
2022-11-16T20:55:29.815Z,10.02
2022-11-16T20:58:33.584Z,10.04
2022-11-16T21:01:36.854Z,10.04
2022-11-16T21:04:41.270Z,10.03
2022-11-16T21:07:44.493Z,10.04
2022-11-16T21:10:48.709Z,10.07
2022-11-16T21:14:11.041Z,10.01
2022-11-16T21:17:14.038Z,10.03
2022-11-16T21:20:27.465Z,10.01
2022-11-16T21:23:33.546Z,10.02
2022-11-16T21:26:39.892Z,10.05
2022-11-16T21:29:45.105Z,10.06
2022-11-16T21:32:47.991Z,10.07
2022-11-16T21:35:52.794Z,10.05
2022-11-16T21:38:55.818Z,10.06
2022-11-16T21:41:58.584Z,10.05
2022-11-16T21:45:01.408Z,10.02
2022-11-16T21:48:04.480Z,10.05
2022-11-16T21:51:10.648Z,10.05
2022-11-16T21:54:13.877Z,10.07
2022-11-16T21:57:18.273Z,10.08
2022-11-16T22:00:21.195Z,10.06
2022-11-16T22:03:25.941Z,10.07
2022-11-16T22:06:47.448Z,10.08
2022-11-16T22:09:50.256Z,10.07
2022-11-16T22:12:53.125Z,10.07
2022-11-16T22:15:56.004Z,10.08
2022-11-16T22:18:58.812Z,10.04
2022-11-16T22:22:01.549Z,10.03
2022-11-16T22:25:04.719Z,9.97
2022-11-16T22:28:20.578Z,9.96
2022-11-16T22:31:24.642Z,9.91
2022-11-16T22:34:27.655Z,9.95
2022-11-16T22:37:30.505Z,9.96
2022-11-16T22:40:33.371Z,9.96
2022-11-16T22:43:37.393Z,9.97
2022-11-16T22:46:40.678Z,9.99
2022-11-16T22:49:43.665Z,9.99
2022-11-16T22:52:46.460Z,10.00
2022-11-16T22:55:49.392Z,10.02
2022-11-16T22:58:52.874Z,10.04
2022-11-16T23:01:55.696Z,10.05
2022-11-16T23:04:58.629Z,10.05
2022-11-16T23:08:01.542Z,10.02
2022-11-16T23:11:29.414Z,9.99
2022-11-16T23:14:50.870Z,10.03
2022-11-16T23:17:53.694Z,10.04
2022-11-16T23:21:17.779Z,10.05
2022-11-16T23:24:39.369Z,10.08
2022-11-16T23:27:51.382Z,10.07
2022-11-16T23:30:54.290Z,10.05
2022-11-16T23:33:57.097Z,9.99
2022-11-16T23:37:03.903Z,10.02
2022-11-16T23:40:07.214Z,10.01
2022-11-16T23:43:31.203Z,10.02
2022-11-16T23:46:34.168Z,10.07
2022-11-16T23:49:36.903Z,10.02
2022-11-16T23:52:39.691Z,10.02
2022-11-16T23:55:42.407Z,10.02
2022-11-16T23:58:45.240Z,10.02
